createdAt,value
2017-12-11T00:00:54.433Z,71.60
2017-12-11T00:03:21.977Z,72.50
2017-12-11T00:05:49.580Z,72.10
2017-12-11T00:08:17.892Z,71.60
2017-12-11T00:10:46.188Z,71.50
2017-12-11T00:13:25.368Z,72.10
2017-12-11T00:20:24.936Z,73.30
2017-12-11T00:22:53.240Z,73.70
2017-12-11T00:25:20.767Z,73.70
2017-12-11T00:27:49.376Z,74.00
2017-12-11T00:30:16.917Z,73.70
2017-12-11T00:32:45.300Z,73.70
2017-12-11T00:35:14.537Z,74.00
2017-12-11T00:37:42.068Z,74.00
2017-12-11T00:40:09.587Z,74.00
2017-12-11T00:42:37.136Z,74.30
2017-12-11T00:45:04.669Z,74.00
2017-12-11T00:47:32.191Z,74.30
2017-12-11T00:50:00.558Z,74.40
2017-12-11T00:52:28.860Z,74.60
2017-12-11T00:54:56.412Z,74.70
2017-12-11T00:57:23.978Z,74.80
2017-12-11T00:59:51.519Z,74.90
2017-12-11T01:02:19.815Z,75.30
2017-12-11T01:04:47.368Z,75.30
2017-12-11T01:07:15.476Z,75.30
2017-12-11T01:09:43.009Z,75.10
2017-12-11T01:12:10.588Z,75.50
2017-12-11T01:14:38.156Z,76.50
2017-12-11T01:17:05.685Z,77.20
2017-12-11T01:19:33.239Z,77.40
2017-12-11T01:22:00.765Z,77.10
2017-12-11T01:24:29.051Z,79.00
2017-12-11T01:26:57.376Z,78.60
2017-12-11T01:29:24.899Z,78.60
2017-12-11T01:31:52.437Z,78.60
2017-12-11T01:34:20.808Z,80.10
2017-12-11T01:36:48.337Z,80.10
2017-12-11T01:39:16.388Z,79.90
2017-12-11T01:41:43.961Z,80.50
2017-12-11T01:44:12.095Z,80.50
2017-12-11T01:46:39.629Z,81.70
2017-12-11T01:49:07.958Z,82.10
2017-12-11T01:51:35.488Z,82.10
2017-12-11T01:54:03.029Z,82.10
2017-12-11T01:56:31.382Z,81.80
2017-12-11T01:58:58.909Z,81.80
2017-12-11T02:01:26.442Z,81.70
2017-12-11T02:03:53.996Z,81.40
2017-12-11T02:06:21.528Z,81.20
2017-12-11T02:08:49.056Z,81.40
2017-12-11T02:11:16.609Z,81.10
2017-12-11T02:13:44.895Z,81.70
2017-12-11T02:16:12.425Z,81.70
2017-12-11T02:18:40.007Z,81.70
2017-12-11T02:21:08.299Z,81.20
2017-12-11T02:23:35.836Z,81.20
2017-12-11T02:26:03.497Z,81.20
2017-12-11T02:28:31.031Z,81.40
2017-12-11T02:30:58.613Z,81.70
2017-12-11T02:33:26.204Z,81.80
2017-12-11T02:35:53.695Z,81.40
2017-12-11T02:38:21.267Z,80.90
2017-12-11T02:40:48.863Z,80.40
2017-12-11T02:43:16.435Z,80.50
2017-12-11T02:45:44.225Z,80.80
2017-12-11T02:48:11.786Z,81.10
2017-12-11T02:50:40.081Z,81.30
2017-12-11T02:53:07.609Z,81.40
2017-12-11T02:55:35.926Z,79.70
2017-12-11T02:58:03.460Z,79.70
2017-12-11T03:00:30.996Z,79.90
2017-12-11T03:02:58.579Z,79.00
2017-12-11T03:05:26.115Z,78.20
2017-12-11T03:07:53.652Z,78.20
2017-12-11T03:10:21.216Z,78.30
2017-12-11T03:12:49.511Z,79.20
2017-12-11T03:15:17.818Z,79.10
2017-12-11T03:17:45.385Z,79.10
2017-12-11T03:20:24.828Z,79.00
2017-12-11T03:26:45.517Z,79.20
2017-12-11T03:29:14.567Z,79.00
2017-12-11T03:31:42.121Z,79.30
2017-12-11T03:34:09.679Z,79.50
2017-12-11T03:36:37.199Z,79.40
2017-12-11T03:39:04.723Z,79.30
2017-12-11T03:41:32.339Z,79.40
2017-12-11T03:43:59.870Z,79.10
2017-12-11T03:46:28.601Z,79.40
2017-12-11T03:48:56.179Z,79.40
2017-12-11T03:51:23.716Z,79.40
2017-12-11T03:53:51.259Z,78.90
2017-12-11T03:56:18.812Z,78.30
2017-12-11T03:58:46.343Z,77.90
2017-12-11T04:01:25.300Z,77.30
2017-12-11T04:05:44.846Z,76.50
2017-12-11T04:08:12.428Z,76.30
2017-12-11T04:10:39.948Z,77.10
2017-12-11T04:13:07.483Z,77.30
2017-12-11T04:15:35.043Z,77.00
2017-12-11T04:18:02.581Z,76.90
2017-12-11T04:20:30.099Z,76.90
2017-12-11T04:22:58.424Z,76.10
2017-12-11T04:25:25.956Z,76.10
2017-12-11T04:27:54.251Z,76.20
2017-12-11T04:30:21.838Z,76.30
2017-12-11T04:32:50.227Z,76.10
2017-12-11T04:35:17.767Z,76.10
2017-12-11T04:37:48.169Z,75.50
2017-12-11T04:40:16.551Z,74.80
2017-12-11T04:42:44.080Z,74.80
2017-12-11T04:45:12.399Z,75.20
2017-12-11T04:47:40.520Z,75.20
2017-12-11T04:50:08.067Z,75.00
2017-12-11T04:52:36.412Z,74.70
2017-12-11T04:55:03.959Z,74.10
2017-12-11T04:57:31.492Z,74.00
2017-12-11T04:59:59.053Z,73.40
2017-12-11T05:02:26.587Z,73.10
2017-12-11T05:04:54.895Z,72.80
2017-12-11T05:07:22.459Z,72.80
2017-12-11T05:09:49.974Z,72.70
2017-12-11T05:12:18.285Z,73.00
2017-12-11T05:14:46.216Z,73.00
2017-12-11T05:17:15.477Z,72.40
2017-12-11T05:19:43.008Z,71.80
2017-12-11T05:22:10.575Z,72.60
2017-12-11T05:24:38.103Z,72.40
2017-12-11T05:27:06.401Z,71.10
2017-12-11T05:29:33.984Z,71.00
2017-12-11T05:32:01.558Z,71.10
2017-12-11T05:34:29.907Z,71.00
2017-12-11T05:36:57.505Z,71.00
2017-12-11T05:39:25.052Z,70.60
2017-12-11T05:41:52.614Z,70.40
2017-12-11T05:46:53.968Z,71.20
2017-12-11T05:49:22.222Z,72.30
2017-12-11T05:51:49.767Z,72.00
2017-12-11T05:54:17.307Z,72.30
2017-12-11T05:56:44.917Z,72.20
2017-12-11T05:59:12.494Z,72.20
2017-12-11T06:01:40.036Z,72.40
2017-12-11T06:04:07.595Z,72.60
2017-12-11T06:06:35.919Z,72.60
2017-12-11T06:09:04.225Z,72.80
2017-12-11T06:11:31.811Z,72.80
2017-12-11T06:13:59.334Z,72.80
2017-12-11T06:16:26.863Z,73.10
2017-12-11T06:18:54.447Z,73.50
2017-12-11T06:21:21.971Z,73.40
2017-12-11T06:23:49.526Z,73.00
2017-12-11T06:26:17.097Z,73.10
2017-12-11T06:28:44.643Z,73.00
2017-12-11T06:31:12.199Z,73.30
2017-12-11T06:33:39.813Z,74.40
2017-12-11T06:36:07.352Z,73.90
2017-12-11T06:38:34.903Z,73.70
2017-12-11T06:41:02.512Z,73.90
2017-12-11T06:43:30.071Z,74.50
2017-12-11T06:45:57.634Z,74.60
2017-12-11T06:48:26.016Z,73.60
2017-12-11T06:50:53.797Z,73.60
2017-12-11T06:53:21.340Z,73.60
2017-12-11T06:55:48.954Z,74.10
2017-12-11T06:58:16.465Z,73.90
2017-12-11T07:00:44.001Z,74.30
2017-12-11T07:03:11.583Z,73.70
2017-12-11T07:05:39.137Z,74.00
2017-12-11T07:08:06.671Z,74.60
2017-12-11T07:10:34.244Z,74.60
2017-12-11T07:13:01.783Z,74.80
2017-12-11T07:15:29.320Z,75.10
2017-12-11T07:17:56.901Z,75.10
2017-12-11T07:20:24.442Z,75.10
2017-12-11T07:22:52.749Z,75.90
2017-12-11T07:25:20.416Z,76.70
2017-12-11T07:27:48.715Z,76.50
2017-12-11T07:30:16.459Z,76.50
2017-12-11T07:32:44.011Z,76.00
2017-12-11T07:35:11.546Z,76.40
2017-12-11T07:37:40.145Z,76.20
2017-12-11T07:40:07.727Z,76.30
2017-12-11T07:42:35.267Z,76.60
2017-12-11T07:45:02.811Z,77.00
2017-12-11T07:47:30.399Z,77.60
2017-12-11T07:49:57.936Z,76.40
2017-12-11T07:52:26.121Z,76.30
2017-12-11T07:54:53.680Z,76.00
2017-12-11T07:57:21.227Z,76.10
2017-12-11T07:59:48.782Z,76.00
2017-12-11T08:02:17.675Z,74.80
2017-12-11T08:04:45.199Z,74.00
2017-12-11T08:07:13.745Z,74.50
2017-12-11T08:09:41.328Z,74.80
2017-12-11T08:12:09.615Z,74.80
2017-12-11T08:14:37.929Z,74.40
2017-12-11T08:17:05.479Z,74.40
2017-12-11T08:19:33.764Z,73.80
2017-12-11T08:22:01.300Z,74.10
2017-12-11T08:24:28.872Z,74.20
2017-12-11T08:26:56.431Z,74.40
2017-12-11T08:29:23.969Z,75.10
2017-12-11T08:31:51.571Z,75.80
2017-12-11T08:34:19.112Z,75.40
2017-12-11T08:36:46.687Z,75.50
2017-12-11T08:39:24.624Z,75.80
2017-12-11T08:47:52.246Z,75.80
2017-12-11T08:50:19.800Z,72.50
2017-12-11T08:52:47.862Z,71.90
2017-12-11T08:55:16.460Z,71.60
2017-12-11T08:57:43.996Z,71.00
2017-12-11T09:00:11.525Z,69.90
2017-12-11T09:02:39.295Z,69.50
2017-12-11T09:05:06.876Z,68.60
2017-12-11T09:07:34.483Z,67.60
2017-12-11T09:10:02.059Z,67.00
2017-12-11T09:12:29.644Z,66.10
2017-12-11T09:14:57.183Z,65.30
2017-12-11T09:17:24.813Z,64.70
2017-12-11T09:19:52.540Z,64.10
2017-12-11T09:22:20.238Z,64.20
2017-12-11T09:24:47.889Z,64.00
2017-12-11T09:27:17.062Z,63.50
2017-12-11T09:29:44.787Z,63.50
2017-12-11T09:32:12.369Z,64.10
2017-12-11T09:34:39.971Z,64.70
2017-12-11T09:37:08.631Z,64.40
2017-12-11T09:39:36.948Z,64.50
2017-12-11T09:42:04.559Z,64.50
2017-12-11T09:44:32.144Z,64.10
2017-12-11T09:46:59.770Z,64.30
2017-12-11T09:49:28.128Z,64.10
2017-12-11T09:51:55.724Z,64.00
2017-12-11T09:54:24.494Z,64.10
2017-12-11T09:56:52.843Z,64.20
2017-12-11T09:59:20.399Z,64.10
2017-12-11T10:01:48.520Z,64.10
2017-12-11T10:04:16.464Z,64.40
2017-12-11T10:06:44.021Z,64.50
2017-12-11T10:09:11.665Z,64.80
2017-12-11T10:11:39.227Z,64.60
2017-12-11T10:14:06.782Z,65.00
2017-12-11T10:16:34.650Z,64.90
2017-12-11T10:19:02.176Z,65.30
2017-12-11T10:21:29.699Z,65.50
2017-12-11T10:23:57.288Z,65.20
2017-12-11T10:26:24.816Z,65.00
2017-12-11T10:28:52.369Z,65.50
2017-12-11T10:31:19.919Z,65.30
2017-12-11T10:33:47.454Z,65.50
2017-12-11T10:36:16.455Z,65.70
2017-12-11T10:38:44.075Z,65.70
2017-12-11T10:41:11.612Z,66.20
2017-12-11T10:43:39.908Z,66.80
2017-12-11T10:46:07.488Z,66.70
2017-12-11T10:48:35.396Z,67.10
2017-12-11T10:51:02.964Z,66.90
2017-12-11T10:53:31.327Z,67.10
2017-12-11T10:55:59.045Z,67.00
2017-12-11T10:58:26.580Z,67.10
2017-12-11T11:00:54.191Z,67.10
2017-12-11T11:03:22.435Z,67.30
2017-12-11T11:05:49.994Z,67.20
2017-12-11T11:08:17.576Z,67.90
2017-12-11T11:10:45.140Z,68.10
2017-12-11T11:13:13.632Z,67.70
2017-12-11T11:15:41.343Z,68.10
2017-12-11T11:18:08.870Z,68.20
2017-12-11T11:20:37.080Z,68.00
2017-12-11T11:23:06.166Z,67.80
2017-12-11T11:25:33.749Z,68.20
2017-12-11T11:28:01.285Z,67.90
2017-12-11T11:30:28.872Z,68.20
2017-12-11T11:32:56.411Z,68.10
2017-12-11T11:35:23.948Z,68.10
2017-12-11T11:37:52.268Z,68.50
2017-12-11T11:40:19.811Z,68.40
2017-12-11T11:42:47.344Z,68.70
2017-12-11T11:45:16.616Z,67.60
2017-12-11T11:47:44.192Z,67.60
2017-12-11T11:50:11.730Z,67.70
2017-12-11T11:52:40.067Z,67.70
2017-12-11T11:55:07.783Z,67.60
2017-12-11T11:57:35.666Z,67.60
2017-12-11T12:00:04.046Z,67.70
2017-12-11T12:02:32.350Z,68.00
2017-12-11T12:04:59.906Z,68.00
2017-12-11T12:07:27.575Z,68.30
2017-12-11T12:09:55.144Z,68.50
2017-12-11T12:12:22.678Z,69.00
2017-12-11T12:14:50.406Z,69.30
2017-12-11T12:17:17.943Z,69.10
2017-12-11T12:19:45.560Z,69.40
2017-12-11T12:22:14.652Z,70.70
2017-12-11T12:24:42.179Z,72.20
2017-12-11T12:27:09.709Z,73.00
2017-12-11T12:29:37.298Z,73.40
2017-12-11T12:32:05.609Z,73.20
2017-12-11T12:34:33.147Z,73.20
2017-12-11T12:37:00.756Z,71.40
2017-12-11T12:39:28.291Z,72.60
2017-12-11T12:41:55.832Z,74.10
2017-12-11T12:44:23.440Z,74.30
2017-12-11T12:46:50.995Z,73.80
2017-12-11T12:49:18.645Z,73.50
2017-12-11T12:51:46.683Z,74.10
2017-12-11T12:54:16.592Z,73.60
2017-12-11T12:56:44.912Z,74.40
2017-12-11T12:59:12.887Z,74.30
2017-12-11T13:01:40.420Z,74.20
2017-12-11T13:04:07.972Z,73.50
2017-12-11T13:06:35.531Z,73.40
2017-12-11T13:09:03.980Z,74.00
2017-12-11T13:11:32.275Z,74.20
2017-12-11T13:13:59.859Z,74.20
2017-12-11T13:16:27.414Z,74.70
2017-12-11T13:18:55.708Z,75.00
2017-12-11T13:21:23.280Z,75.10
2017-12-11T13:23:50.811Z,74.90
2017-12-11T13:26:18.337Z,74.30
2017-12-11T13:28:45.897Z,74.60
2017-12-11T13:31:15.770Z,75.10
2017-12-11T13:33:43.315Z,75.10
2017-12-11T13:36:11.336Z,75.50
2017-12-11T13:38:39.634Z,75.50
2017-12-11T13:41:07.168Z,75.50
2017-12-11T13:43:34.732Z,75.90
2017-12-11T13:46:03.037Z,75.90
2017-12-11T13:48:30.588Z,75.90
2017-12-11T13:50:58.437Z,75.70
2017-12-11T13:53:25.975Z,75.40
2017-12-11T13:55:54.279Z,74.70
2017-12-11T13:58:21.880Z,74.70
2017-12-11T14:00:49.691Z,74.60
2017-12-11T14:03:18.008Z,73.30
2017-12-11T14:05:45.579Z,73.20
2017-12-11T14:08:15.830Z,73.10
2017-12-11T14:10:43.370Z,71.20
2017-12-11T14:13:10.944Z,69.90
2017-12-11T14:15:38.477Z,68.30
2017-12-11T14:18:06.044Z,67.50
2017-12-11T14:20:34.395Z,66.00
2017-12-11T14:23:01.926Z,66.00
2017-12-11T14:25:29.473Z,65.50
2017-12-11T14:27:57.822Z,64.80
2017-12-11T14:30:25.350Z,64.80
2017-12-11T14:32:52.922Z,65.00
2017-12-11T14:35:20.553Z,64.80
2017-12-11T14:37:48.112Z,64.80
2017-12-11T14:40:16.433Z,65.00
2017-12-11T14:42:44.048Z,65.00
2017-12-11T14:45:11.708Z,65.10
2017-12-11T14:47:39.264Z,65.00
2017-12-11T14:50:07.204Z,65.20
2017-12-11T14:52:35.506Z,65.50
2017-12-11T14:55:03.031Z,65.50
2017-12-11T14:57:30.645Z,65.90
2017-12-11T14:59:58.180Z,66.00
2017-12-11T15:02:26.352Z,65.90
2017-12-11T15:04:54.192Z,66.00
2017-12-11T15:07:21.740Z,66.30
2017-12-11T15:09:49.291Z,66.40
2017-12-11T15:12:16.856Z,66.20
2017-12-11T15:14:44.415Z,66.20
2017-12-11T15:17:11.944Z,66.40
2017-12-11T15:19:40.214Z,66.30
2017-12-11T15:22:07.769Z,66.30
2017-12-11T15:24:35.292Z,66.30
2017-12-11T15:27:02.877Z,66.50
2017-12-11T15:29:30.406Z,66.40
2017-12-11T15:31:57.972Z,66.40
2017-12-11T15:34:26.296Z,66.30
2017-12-11T15:36:54.000Z,66.20
2017-12-11T15:39:21.572Z,66.40
2017-12-11T15:41:49.168Z,66.10
2017-12-11T15:44:16.724Z,65.90
2017-12-11T15:46:44.256Z,65.90
2017-12-11T15:49:11.870Z,65.90
2017-12-11T15:51:39.424Z,65.80
2017-12-11T15:54:07.728Z,65.40
2017-12-11T15:56:35.590Z,65.40
2017-12-11T15:59:03.933Z,65.10
2017-12-11T16:01:31.459Z,65.10
2017-12-11T16:03:59.664Z,64.50
2017-12-11T16:06:27.192Z,64.10
2017-12-11T16:08:54.727Z,64.30
2017-12-11T16:11:22.415Z,63.10
2017-12-11T16:13:50.739Z,62.90
2017-12-11T16:16:18.272Z,62.90
2017-12-11T16:18:45.847Z,62.70
2017-12-11T16:21:14.631Z,62.70
2017-12-11T16:23:42.182Z,62.80
2017-12-11T16:26:09.740Z,63.00
2017-12-11T16:28:37.278Z,63.30
2017-12-11T16:31:04.827Z,63.10
2017-12-11T16:33:32.560Z,63.30
2017-12-11T16:36:00.764Z,63.50
2017-12-11T16:38:28.336Z,63.40
2017-12-11T16:40:56.754Z,63.50
2017-12-11T16:43:24.361Z,64.70
2017-12-11T16:45:51.904Z,65.70
2017-12-11T16:48:19.557Z,66.00
2017-12-11T16:50:48.810Z,68.10
2017-12-11T16:53:16.500Z,68.00
2017-12-11T16:55:44.113Z,68.90
2017-12-11T16:58:11.656Z,70.10
2017-12-11T17:00:39.194Z,70.00
2017-12-11T17:03:07.776Z,71.60
2017-12-11T17:05:35.831Z,70.90
2017-12-11T17:08:03.384Z,71.30
2017-12-11T17:10:31.009Z,71.90
2017-12-11T17:12:58.540Z,72.40
2017-12-11T17:15:26.080Z,73.10
2017-12-11T17:17:55.117Z,73.60
2017-12-11T17:20:22.676Z,74.00
2017-12-11T17:22:50.211Z,74.50
2017-12-11T17:25:17.768Z,75.20
2017-12-11T17:27:45.311Z,75.70
2017-12-11T17:30:14.571Z,76.40
2017-12-11T17:32:42.149Z,76.30
2017-12-11T17:35:09.683Z,76.40
2017-12-11T17:37:37.220Z,76.10
2017-12-11T17:40:04.824Z,76.50
2017-12-11T17:42:32.381Z,76.70
2017-12-11T17:45:00.736Z,78.00
2017-12-11T17:47:28.340Z,77.80
2017-12-11T17:49:55.906Z,77.90
2017-12-11T17:52:23.484Z,77.60
2017-12-11T17:54:51.086Z,77.60
2017-12-11T17:57:18.632Z,77.80
2017-12-11T17:59:46.195Z,77.50
2017-12-11T18:02:16.445Z,77.60
2017-12-11T18:04:44.090Z,77.60
2017-12-11T18:07:12.524Z,77.80
2017-12-11T18:09:40.186Z,78.10
2017-12-11T18:12:07.739Z,78.20
2017-12-11T18:14:35.272Z,78.80
2017-12-11T18:17:03.664Z,79.30
2017-12-11T18:19:31.302Z,79.30
2017-12-11T18:21:59.015Z,80.10
2017-12-11T18:24:26.825Z,80.50
2017-12-11T18:26:54.360Z,81.10
2017-12-11T18:29:22.009Z,81.40
2017-12-11T18:31:51.002Z,81.10
2017-12-11T18:34:18.595Z,81.20
2017-12-11T18:36:46.148Z,81.30
2017-12-11T18:39:16.358Z,82.20
2017-12-11T18:41:44.737Z,82.30
2017-12-11T18:44:12.343Z,83.20
2017-12-11T18:46:39.931Z,82.60
2017-12-11T18:49:07.551Z,82.70
2017-12-11T18:51:36.087Z,82.40
2017-12-11T18:54:04.531Z,82.00
2017-12-11T18:56:32.076Z,81.90
2017-12-11T18:59:00.414Z,81.60
2017-12-11T19:01:28.004Z,81.50
2017-12-11T19:03:56.334Z,81.50
2017-12-11T19:06:23.912Z,81.50
2017-12-11T19:08:51.554Z,81.50
2017-12-11T19:11:19.251Z,81.40
2017-12-11T19:13:46.907Z,81.30
2017-12-11T19:16:15.603Z,81.00
2017-12-11T19:18:43.139Z,81.40
2017-12-11T19:21:10.686Z,81.40
2017-12-11T19:23:38.308Z,81.60
2017-12-11T19:26:05.851Z,81.90
2017-12-11T19:28:34.164Z,82.20
2017-12-11T19:31:02.069Z,82.10
2017-12-11T19:33:29.617Z,82.10
2017-12-11T19:35:57.921Z,82.30
2017-12-11T19:38:26.283Z,82.10
2017-12-11T19:40:54.606Z,82.20
2017-12-11T19:43:22.280Z,82.20
2017-12-11T19:45:49.853Z,82.40
2017-12-11T19:48:17.398Z,82.30
2017-12-11T19:50:44.933Z,82.10
2017-12-11T19:53:12.527Z,81.90
2017-12-11T19:55:40.082Z,82.00
2017-12-11T19:58:07.663Z,82.00
2017-12-11T20:00:36.031Z,81.70
2017-12-11T20:03:03.572Z,81.70
2017-12-11T20:05:31.138Z,81.60
2017-12-11T20:07:58.687Z,81.40
2017-12-11T20:10:27.016Z,81.20
2017-12-11T20:12:55.390Z,81.50
2017-12-11T20:15:23.046Z,81.40
2017-12-11T20:17:50.767Z,82.20
2017-12-11T20:20:18.312Z,83.60
2017-12-11T20:22:45.874Z,82.60
2017-12-11T20:25:15.437Z,82.70
2017-12-11T20:27:43.020Z,82.60
2017-12-11T20:30:10.635Z,83.10
2017-12-11T20:32:38.173Z,83.30
2017-12-11T20:35:05.798Z,83.60
2017-12-11T20:37:33.436Z,83.20
2017-12-11T20:40:00.974Z,83.10
2017-12-11T20:42:28.525Z,83.20
2017-12-11T20:44:56.100Z,83.40
2017-12-11T20:47:23.653Z,83.50
2017-12-11T20:49:51.220Z,83.60
2017-12-11T20:52:18.842Z,83.70
2017-12-11T20:54:46.408Z,83.40
2017-12-11T20:57:25.304Z,83.40
2017-12-11T21:03:24.631Z,83.20
2017-12-11T21:05:52.243Z,83.40
2017-12-11T21:08:19.842Z,83.70
2017-12-11T21:10:48.200Z,83.40
2017-12-11T21:13:16.426Z,83.40
2017-12-11T21:15:43.960Z,83.20
2017-12-11T21:18:11.564Z,83.30
2017-12-11T21:20:39.132Z,83.30
2017-12-11T21:23:06.699Z,83.20
2017-12-11T21:25:34.296Z,83.10
2017-12-11T21:28:01.980Z,83.40
2017-12-11T21:30:29.512Z,83.50
2017-12-11T21:32:57.851Z,83.80
2017-12-11T21:35:25.388Z,83.70
2017-12-11T21:37:52.977Z,83.90
2017-12-11T21:40:21.458Z,83.70
2017-12-11T21:42:49.828Z,83.60
2017-12-11T21:45:17.368Z,83.50
2017-12-11T21:47:44.944Z,83.80
2017-12-11T21:50:12.488Z,84.10
2017-12-11T21:52:40.020Z,84.30
2017-12-11T21:55:07.677Z,84.20
2017-12-11T21:57:35.207Z,84.20
2017-12-11T22:00:02.738Z,84.20
2017-12-11T22:02:30.371Z,84.00
2017-12-11T22:04:57.899Z,83.70
2017-12-11T22:07:26.229Z,83.50
2017-12-11T22:09:53.832Z,83.50
2017-12-11T22:12:22.775Z,83.20
2017-12-11T22:14:50.344Z,83.20
2017-12-11T22:17:17.908Z,83.50
2017-12-11T22:19:45.479Z,83.60
2017-12-11T22:22:14.656Z,84.00
2017-12-11T22:24:42.237Z,84.60
2017-12-11T22:27:09.772Z,84.80
2017-12-11T22:29:37.440Z,85.00
2017-12-11T22:32:05.027Z,85.60
2017-12-11T22:34:32.592Z,86.20
2017-12-11T22:37:00.879Z,86.70
2017-12-11T22:39:28.628Z,86.70
2017-12-11T22:41:56.924Z,87.40
2017-12-11T22:44:24.452Z,87.40
2017-12-11T22:46:52.796Z,88.40
2017-12-11T22:49:20.333Z,88.40
2017-12-11T22:51:47.867Z,88.40
2017-12-11T22:54:16.516Z,88.60
2017-12-11T22:56:44.105Z,88.70
2017-12-11T22:59:11.639Z,89.40
2017-12-11T23:01:39.195Z,89.60
2017-12-11T23:04:06.777Z,89.90
2017-12-11T23:06:34.292Z,89.90
2017-12-11T23:09:01.881Z,90.10
2017-12-11T23:11:30.188Z,90.10
2017-12-11T23:13:58.959Z,90.30
2017-12-11T23:16:26.512Z,90.30
2017-12-11T23:18:54.811Z,90.30
2017-12-11T23:21:22.339Z,90.30
2017-12-11T23:23:49.903Z,90.50
2017-12-11T23:26:18.204Z,90.50
2017-12-11T23:28:45.746Z,90.50
2017-12-11T23:31:25.950Z,90.50
2017-12-11T23:34:43.655Z,90.40
2017-12-11T23:37:11.208Z,90.60
2017-12-11T23:39:38.731Z,90.70
2017-12-11T23:42:06.260Z,90.70
2017-12-11T23:44:33.819Z,90.50
2017-12-11T23:47:01.340Z,90.50
2017-12-11T23:49:28.875Z,90.60
2017-12-11T23:51:56.459Z,90.60
2017-12-11T23:54:33.861Z,90.70
2017-12-11T23:57:01.415Z,90.70
2017-12-11T23:59:28.947Z,90.80
